sensor_id;sensor_type;location;lat;lon;timestamp;P1;durP1;ratioP1;P2;durP2;ratioP2
49041;SDS011;34859;51.608;11.462;2022-07-23T00:00:40;9.30;;;6.05;;
49041;SDS011;34859;51.608;11.462;2022-07-23T00:03:26;6.47;;;5.90;;
49041;SDS011;34859;51.608;11.462;2022-07-23T00:06:12;6.30;;;5.60;;
49041;SDS011;34859;51.608;11.462;2022-07-23T00:08:57;6.38;;;5.97;;
49041;SDS011;34859;51.608;11.462;2022-07-23T00:11:43;6.18;;;5.63;;
49041;SDS011;34859;51.608;11.462;2022-07-23T00:14:28;6.70;;;6.10;;
49041;SDS011;34859;51.608;11.462;2022-07-23T00:17:14;6.47;;;5.88;;
49041;SDS011;34859;51.608;11.462;2022-07-23T00:20:00;6.15;;;5.65;;
49041;SDS011;34859;51.608;11.462;2022-07-23T00:22:47;5.85;;;5.35;;
49041;SDS011;34859;51.608;11.462;2022-07-23T00:25:37;6.35;;;5.75;;
49041;SDS011;34859;51.608;11.462;2022-07-23T00:28:22;6.57;;;5.97;;
49041;SDS011;34859;51.608;11.462;2022-07-23T00:31:08;9.40;;;7.28;;
49041;SDS011;34859;51.608;11.462;2022-07-23T00:33:54;6.38;;;5.88;;
49041;SDS011;34859;51.608;11.462;2022-07-23T00:36:42;8.63;;;6.13;;
49041;SDS011;34859;51.608;11.462;2022-07-23T00:39:28;9.20;;;7.05;;
49041;SDS011;34859;51.608;11.462;2022-07-23T00:42:13;6.88;;;6.38;;
49041;SDS011;34859;51.608;11.462;2022-07-23T00:44:59;6.10;;;5.60;;
49041;SDS011;34859;51.608;11.462;2022-07-23T00:47:45;9.20;;;6.82;;
49041;SDS011;34859;51.608;11.462;2022-07-23T00:50:31;6.32;;;5.68;;
49041;SDS011;34859;51.608;11.462;2022-07-23T00:53:15;6.05;;;5.65;;
49041;SDS011;34859;51.608;11.462;2022-07-23T00:56:00;6.70;;;6.13;;
49041;SDS011;34859;51.608;11.462;2022-07-23T00:58:46;6.72;;;6.32;;
49041;SDS011;34859;51.608;11.462;2022-07-23T01:01:31;6.00;;;5.53;;
49041;SDS011;34859;51.608;11.462;2022-07-23T01:04:17;6.00;;;5.60;;
49041;SDS011;34859;51.608;11.462;2022-07-23T01:07:03;6.50;;;5.40;;
49041;SDS011;34859;51.608;11.462;2022-07-23T01:09:49;7.10;;;5.72;;
49041;SDS011;34859;51.608;11.462;2022-07-23T01:12:36;6.13;;;5.63;;
49041;SDS011;34859;51.608;11.462;2022-07-23T01:15:22;6.13;;;5.53;;
49041;SDS011;34859;51.608;11.462;2022-07-23T01:18:08;6.30;;;5.57;;
49041;SDS011;34859;51.608;11.462;2022-07-23T01:20:54;5.90;;;5.50;;
49041;SDS011;34859;51.608;11.462;2022-07-23T01:23:40;5.95;;;5.45;;
49041;SDS011;34859;51.608;11.462;2022-07-23T01:26:26;6.03;;;5.63;;
49041;SDS011;34859;51.608;11.462;2022-07-23T01:29:12;6.53;;;6.00;;
49041;SDS011;34859;51.608;11.462;2022-07-23T01:31:58;6.88;;;6.22;;
49041;SDS011;34859;51.608;11.462;2022-07-23T01:34:43;8.13;;;7.00;;
49041;SDS011;34859;51.608;11.462;2022-07-23T01:37:29;10.23;;;6.30;;
49041;SDS011;34859;51.608;11.462;2022-07-23T01:40:14;7.28;;;6.57;;
49041;SDS011;34859;51.608;11.462;2022-07-23T01:43:00;7.22;;;6.47;;
49041;SDS011;34859;51.608;11.462;2022-07-23T01:45:46;6.70;;;6.10;;
49041;SDS011;34859;51.608;11.462;2022-07-23T01:48:31;6.40;;;5.65;;
49041;SDS011;34859;51.608;11.462;2022-07-23T01:51:17;6.65;;;6.03;;
49041;SDS011;34859;51.608;11.462;2022-07-23T01:54:02;7.20;;;6.22;;
49041;SDS011;34859;51.608;11.462;2022-07-23T01:56:48;7.75;;;5.95;;
49041;SDS011;34859;51.608;11.462;2022-07-23T01:59:34;8.70;;;6.43;;
49041;SDS011;34859;51.608;11.462;2022-07-23T02:02:20;6.05;;;5.57;;
49041;SDS011;34859;51.608;11.462;2022-07-23T02:05:06;6.70;;;6.10;;
49041;SDS011;34859;51.608;11.462;2022-07-23T02:07:52;7.25;;;6.53;;
49041;SDS011;34859;51.608;11.462;2022-07-23T02:10:39;8.57;;;7.25;;
49041;SDS011;34859;51.608;11.462;2022-07-23T02:13:25;7.20;;;6.47;;
49041;SDS011;34859;51.608;11.462;2022-07-23T02:16:10;11.73;;;8.45;;
49041;SDS011;34859;51.608;11.462;2022-07-23T02:18:56;7.88;;;7.10;;
49041;SDS011;34859;51.608;11.462;2022-07-23T02:21:42;8.20;;;7.40;;
49041;SDS011;34859;51.608;11.462;2022-07-23T02:24:27;9.40;;;7.25;;
49041;SDS011;34859;51.608;11.462;2022-07-23T02:27:13;7.45;;;6.82;;
49041;SDS011;34859;51.608;11.462;2022-07-23T02:29:59;8.45;;;7.65;;
49041;SDS011;34859;51.608;11.462;2022-07-23T02:32:45;8.60;;;7.40;;
49041;SDS011;34859;51.608;11.462;2022-07-23T02:35:31;12.25;;;9.35;;
49041;SDS011;34859;51.608;11.462;2022-07-23T02:38:16;8.35;;;7.30;;
49041;SDS011;34859;51.608;11.462;2022-07-23T02:41:02;8.93;;;7.90;;
49041;SDS011;34859;51.608;11.462;2022-07-23T02:43:47;11.00;;;8.02;;
49041;SDS011;34859;51.608;11.462;2022-07-23T02:46:33;8.45;;;7.65;;
49041;SDS011;34859;51.608;11.462;2022-07-23T02:49:19;7.85;;;7.30;;
49041;SDS011;34859;51.608;11.462;2022-07-23T02:52:04;12.63;;;9.50;;
49041;SDS011;34859;51.608;11.462;2022-07-23T02:54:50;8.95;;;8.18;;
49041;SDS011;34859;51.608;11.462;2022-07-23T02:57:36;9.18;;;8.57;;
49041;SDS011;34859;51.608;11.462;2022-07-23T03:00:22;13.35;;;9.25;;
49041;SDS011;34859;51.608;11.462;2022-07-23T03:03:07;9.85;;;8.93;;
49041;SDS011;34859;51.608;11.462;2022-07-23T03:05:53;9.48;;;8.77;;
49041;SDS011;34859;51.608;11.462;2022-07-23T03:08:39;8.52;;;7.80;;
49041;SDS011;34859;51.608;11.462;2022-07-23T03:11:24;11.15;;;8.98;;
49041;SDS011;34859;51.608;11.462;2022-07-23T03:14:10;9.60;;;8.63;;
49041;SDS011;34859;51.608;11.462;2022-07-23T03:16:58;9.10;;;8.40;;
49041;SDS011;34859;51.608;11.462;2022-07-23T03:19:44;12.75;;;10.65;;
49041;SDS011;34859;51.608;11.462;2022-07-23T03:22:30;10.90;;;9.68;;
49041;SDS011;34859;51.608;11.462;2022-07-23T03:25:16;12.68;;;9.82;;
49041;SDS011;34859;51.608;11.462;2022-07-23T03:28:01;10.18;;;9.27;;
49041;SDS011;34859;51.608;11.462;2022-07-23T03:30:47;10.18;;;9.15;;
49041;SDS011;34859;51.608;11.462;2022-07-23T03:33:33;14.05;;;11.77;;
49041;SDS011;34859;51.608;11.462;2022-07-23T03:36:18;11.95;;;10.60;;
49041;SDS011;34859;51.608;11.462;2022-07-23T03:39:04;22.08;;;10.95;;
49041;SDS011;34859;51.608;11.462;2022-07-23T03:41:50;12.38;;;9.90;;
49041;SDS011;34859;51.608;11.462;2022-07-23T03:44:35;11.68;;;10.00;;
49041;SDS011;34859;51.608;11.462;2022-07-23T03:47:24;11.68;;;10.30;;
49041;SDS011;34859;51.608;11.462;2022-07-23T03:50:09;11.80;;;10.70;;
49041;SDS011;34859;51.608;11.462;2022-07-23T03:52:55;12.10;;;10.82;;
49041;SDS011;34859;51.608;11.462;2022-07-23T03:55:41;15.02;;;11.80;;
49041;SDS011;34859;51.608;11.462;2022-07-23T03:58:27;11.77;;;10.57;;
49041;SDS011;34859;51.608;11.462;2022-07-23T04:01:12;12.07;;;10.80;;
49041;SDS011;34859;51.608;11.462;2022-07-23T04:03:58;12.43;;;11.07;;
49041;SDS011;34859;51.608;11.462;2022-07-23T04:06:44;11.45;;;10.35;;
49041;SDS011;34859;51.608;11.462;2022-07-23T04:09:30;12.35;;;11.18;;
49041;SDS011;34859;51.608;11.462;2022-07-23T04:12:15;17.48;;;13.27;;
49041;SDS011;34859;51.608;11.462;2022-07-23T04:15:01;12.93;;;10.88;;
49041;SDS011;34859;51.608;11.462;2022-07-23T04:17:46;14.13;;;12.63;;
49041;SDS011;34859;51.608;11.462;2022-07-23T04:20:32;12.40;;;11.30;;
49041;SDS011;34859;51.608;11.462;2022-07-23T04:23:18;11.45;;;10.55;;
49041;SDS011;34859;51.608;11.462;2022-07-23T04:26:04;11.70;;;10.73;;
49041;SDS011;34859;51.608;11.462;2022-07-23T04:28:50;12.55;;;11.15;;
49041;SDS011;34859;51.608;11.462;2022-07-23T04:31:36;13.85;;;12.15;;
49041;SDS011;34859;51.608;11.462;2022-07-23T04:34:21;14.77;;;13.45;;
49041;SDS011;34859;51.608;11.462;2022-07-23T04:37:07;16.05;;;14.40;;
49041;SDS011;34859;51.608;11.462;2022-07-23T04:39:53;15.68;;;14.10;;
49041;SDS011;34859;51.608;11.462;2022-07-23T04:42:39;15.77;;;14.27;;
49041;SDS011;34859;51.608;11.462;2022-07-23T04:45:24;15.48;;;14.00;;
49041;SDS011;34859;51.608;11.462;2022-07-23T04:48:10;16.45;;;14.85;;
49041;SDS011;34859;51.608;11.462;2022-07-23T04:50:55;14.73;;;13.25;;
49041;SDS011;34859;51.608;11.462;2022-07-23T04:53:41;14.40;;;13.18;;
49041;SDS011;34859;51.608;11.462;2022-07-23T04:56:27;19.02;;;15.68;;
49041;SDS011;34859;51.608;11.462;2022-07-23T04:59:12;16.20;;;14.75;;
49041;SDS011;34859;51.608;11.462;2022-07-23T05:01:58;15.73;;;14.23;;
49041;SDS011;34859;51.608;11.462;2022-07-23T05:04:44;14.45;;;13.18;;
49041;SDS011;34859;51.608;11.462;2022-07-23T05:07:29;13.68;;;12.35;;
49041;SDS011;34859;51.608;11.462;2022-07-23T05:10:15;12.32;;;11.10;;
49041;SDS011;34859;51.608;11.462;2022-07-23T05:13:00;12.50;;;11.48;;
49041;SDS011;34859;51.608;11.462;2022-07-23T05:15:46;7.90;;;7.40;;
49041;SDS011;34859;51.608;11.462;2022-07-23T05:18:32;8.25;;;7.65;;
49041;SDS011;34859;51.608;11.462;2022-07-23T05:21:18;7.82;;;7.32;;
49041;SDS011;34859;51.608;11.462;2022-07-23T05:24:03;8.50;;;7.85;;
49041;SDS011;34859;51.608;11.462;2022-07-23T05:26:50;9.10;;;8.40;;
49041;SDS011;34859;51.608;11.462;2022-07-23T05:29:35;10.63;;;9.73;;
49041;SDS011;34859;51.608;11.462;2022-07-23T05:32:21;10.82;;;9.77;;
49041;SDS011;34859;51.608;11.462;2022-07-23T05:35:07;10.18;;;9.35;;
49041;SDS011;34859;51.608;11.462;2022-07-23T05:37:53;10.82;;;9.82;;
49041;SDS011;34859;51.608;11.462;2022-07-23T05:40:39;9.70;;;8.80;;
49041;SDS011;34859;51.608;11.462;2022-07-23T05:43:25;7.97;;;7.47;;
49041;SDS011;34859;51.608;11.462;2022-07-23T05:46:10;8.48;;;7.72;;
49041;SDS011;34859;51.608;11.462;2022-07-23T05:48:56;9.73;;;8.98;;
49041;SDS011;34859;51.608;11.462;2022-07-23T05:51:42;10.13;;;9.43;;
49041;SDS011;34859;51.608;11.462;2022-07-23T05:54:27;9.45;;;8.75;;
49041;SDS011;34859;51.608;11.462;2022-07-23T05:57:13;8.80;;;8.20;;
49041;SDS011;34859;51.608;11.462;2022-07-23T05:59:58;9.88;;;8.98;;
49041;SDS011;34859;51.608;11.462;2022-07-23T06:02:44;9.88;;;9.18;;
49041;SDS011;34859;51.608;11.462;2022-07-23T06:05:30;11.30;;;10.40;;
49041;SDS011;34859;51.608;11.462;2022-07-23T06:08:15;17.00;;;12.80;;
49041;SDS011;34859;51.608;11.462;2022-07-23T06:11:01;10.63;;;9.60;;
49041;SDS011;34859;51.608;11.462;2022-07-23T06:13:47;10.75;;;9.65;;
49041;SDS011;34859;51.608;11.462;2022-07-23T06:16:33;11.30;;;10.30;;
49041;SDS011;34859;51.608;11.462;2022-07-23T06:19:18;11.43;;;10.50;;
49041;SDS011;34859;51.608;11.462;2022-07-23T06:22:04;14.45;;;12.98;;
49041;SDS011;34859;51.608;11.462;2022-07-23T06:24:50;12.90;;;11.70;;
49041;SDS011;34859;51.608;11.462;2022-07-23T06:27:36;12.18;;;10.80;;
49041;SDS011;34859;51.608;11.462;2022-07-23T06:30:22;12.88;;;11.57;;
49041;SDS011;34859;51.608;11.462;2022-07-23T06:33:08;14.70;;;13.30;;
49041;SDS011;34859;51.608;11.462;2022-07-23T06:35:53;12.07;;;10.98;;
49041;SDS011;34859;51.608;11.462;2022-07-23T06:38:39;12.02;;;11.00;;
49041;SDS011;34859;51.608;11.462;2022-07-23T06:41:24;13.57;;;12.48;;
49041;SDS011;34859;51.608;11.462;2022-07-23T06:44:10;12.18;;;11.00;;
49041;SDS011;34859;51.608;11.462;2022-07-23T06:46:56;12.63;;;11.30;;
49041;SDS011;34859;51.608;11.462;2022-07-23T06:49:41;12.48;;;11.32;;
49041;SDS011;34859;51.608;11.462;2022-07-23T06:52:27;10.98;;;9.88;;
49041;SDS011;34859;51.608;11.462;2022-07-23T06:55:11;13.18;;;11.98;;
49041;SDS011;34859;51.608;11.462;2022-07-23T06:57:56;12.75;;;11.55;;
49041;SDS011;34859;51.608;11.462;2022-07-23T07:00:42;16.88;;;13.38;;
49041;SDS011;34859;51.608;11.462;2022-07-23T07:03:28;13.73;;;12.32;;
49041;SDS011;34859;51.608;11.462;2022-07-23T07:06:13;12.70;;;11.55;;
49041;SDS011;34859;51.608;11.462;2022-07-23T07:08:59;12.18;;;11.07;;
49041;SDS011;34859;51.608;11.462;2022-07-23T07:11:45;11.82;;;10.65;;
49041;SDS011;34859;51.608;11.462;2022-07-23T07:14:31;12.10;;;10.90;;
49041;SDS011;34859;51.608;11.462;2022-07-23T07:17:17;13.90;;;12.15;;
49041;SDS011;34859;51.608;11.462;2022-07-23T07:20:03;11.30;;;10.25;;
49041;SDS011;34859;51.608;11.462;2022-07-23T07:22:49;11.52;;;10.40;;
49041;SDS011;34859;51.608;11.462;2022-07-23T07:25:35;17.55;;;12.02;;
49041;SDS011;34859;51.608;11.462;2022-07-23T07:28:20;13.02;;;11.68;;
49041;SDS011;34859;51.608;11.462;2022-07-23T07:31:06;12.43;;;10.35;;
49041;SDS011;34859;51.608;11.462;2022-07-23T07:33:52;14.40;;;12.02;;
49041;SDS011;34859;51.608;11.462;2022-07-23T07:36:37;12.88;;;11.77;;
49041;SDS011;34859;51.608;11.462;2022-07-23T07:39:23;13.73;;;12.32;;
49041;SDS011;34859;51.608;11.462;2022-07-23T07:42:09;16.55;;;12.40;;
49041;SDS011;34859;51.608;11.462;2022-07-23T07:44:54;12.90;;;11.45;;
49041;SDS011;34859;51.608;11.462;2022-07-23T07:47:40;15.20;;;11.98;;
49041;SDS011;34859;51.608;11.462;2022-07-23T07:50:26;12.27;;;11.13;;
49041;SDS011;34859;51.608;11.462;2022-07-23T07:53:11;13.90;;;12.02;;
49041;SDS011;34859;51.608;11.462;2022-07-23T07:55:57;15.63;;;11.52;;
49041;SDS011;34859;51.608;11.462;2022-07-23T07:58:43;11.98;;;10.55;;
49041;SDS011;34859;51.608;11.462;2022-07-23T08:01:29;10.25;;;9.40;;
49041;SDS011;34859;51.608;11.462;2022-07-23T08:04:15;14.50;;;10.82;;
49041;SDS011;34859;51.608;11.462;2022-07-23T08:07:00;13.25;;;10.68;;
49041;SDS011;34859;51.608;11.462;2022-07-23T08:09:46;12.82;;;11.48;;
49041;SDS011;34859;51.608;11.462;2022-07-23T08:13:05;11.45;;;10.35;;
49041;SDS011;34859;51.608;11.462;2022-07-23T08:15:45;12.48;;;11.10;;
49041;SDS011;34859;51.608;11.462;2022-07-23T08:18:31;12.23;;;9.75;;
49041;SDS011;34859;51.608;11.462;2022-07-23T08:21:16;15.73;;;11.55;;
49041;SDS011;34859;51.608;11.462;2022-07-23T08:24:02;13.10;;;11.57;;
49041;SDS011;34859;51.608;11.462;2022-07-23T08:26:48;13.68;;;11.20;;
49041;SDS011;34859;51.608;11.462;2022-07-23T08:29:33;14.77;;;12.57;;
49041;SDS011;34859;51.608;11.462;2022-07-23T08:32:19;13.50;;;11.85;;
49041;SDS011;34859;51.608;11.462;2022-07-23T08:35:05;14.15;;;12.65;;
49041;SDS011;34859;51.608;11.462;2022-07-23T08:37:51;16.23;;;12.73;;
49041;SDS011;34859;51.608;11.462;2022-07-23T08:40:38;14.18;;;12.77;;
49041;SDS011;34859;51.608;11.462;2022-07-23T08:43:26;15.52;;;14.07;;
49041;SDS011;34859;51.608;11.462;2022-07-23T08:46:13;14.07;;;12.75;;
49041;SDS011;34859;51.608;11.462;2022-07-23T08:49:02;14.70;;;13.20;;
49041;SDS011;34859;51.608;11.462;2022-07-23T08:51:48;17.23;;;13.18;;
49041;SDS011;34859;51.608;11.462;2022-07-23T08:54:34;17.77;;;14.73;;
49041;SDS011;34859;51.608;11.462;2022-07-23T08:57:20;16.17;;;13.48;;
49041;SDS011;34859;51.608;11.462;2022-07-23T09:00:05;20.95;;;16.45;;
49041;SDS011;34859;51.608;11.462;2022-07-23T09:02:52;18.80;;;16.23;;
49041;SDS011;34859;51.608;11.462;2022-07-23T09:05:38;18.05;;;16.25;;
49041;SDS011;34859;51.608;11.462;2022-07-23T09:11:19;18.02;;;16.30;;
49041;SDS011;34859;51.608;11.462;2022-07-23T09:14:05;17.80;;;15.80;;
49041;SDS011;34859;51.608;11.462;2022-07-23T09:16:50;26.40;;;20.83;;
49041;SDS011;34859;51.608;11.462;2022-07-23T09:19:36;26.17;;;23.52;;
49041;SDS011;34859;51.608;11.462;2022-07-23T09:22:26;32.38;;;28.98;;
49041;SDS011;34859;51.608;11.462;2022-07-23T09:25:13;35.75;;;29.45;;
49041;SDS011;34859;51.608;11.462;2022-07-23T09:28:00;31.80;;;28.35;;
49041;SDS011;34859;51.608;11.462;2022-07-23T09:30:47;32.42;;;29.15;;
49041;SDS011;34859;51.608;11.462;2022-07-23T09:33:36;29.75;;;26.98;;
49041;SDS011;34859;51.608;11.462;2022-07-23T09:36:27;33.65;;;30.45;;
49041;SDS011;34859;51.608;11.462;2022-07-23T09:39:14;32.38;;;29.20;;
49041;SDS011;34859;51.608;11.462;2022-07-23T09:42:13;30.73;;;27.63;;
49041;SDS011;34859;51.608;11.462;2022-07-23T09:45:10;32.50;;;29.27;;
49041;SDS011;34859;51.608;11.462;2022-07-23T09:48:13;32.50;;;28.63;;
49041;SDS011;34859;51.608;11.462;2022-07-23T09:51:02;26.80;;;24.20;;
49041;SDS011;34859;51.608;11.462;2022-07-23T09:53:49;23.60;;;21.50;;
49041;SDS011;34859;51.608;11.462;2022-07-23T09:56:35;26.08;;;23.58;;
49041;SDS011;34859;51.608;11.462;2022-07-23T09:59:23;24.67;;;22.13;;
49041;SDS011;34859;51.608;11.462;2022-07-23T10:02:11;25.20;;;22.85;;
49041;SDS011;34859;51.608;11.462;2022-07-23T10:04:58;24.90;;;22.58;;
49041;SDS011;34859;51.608;11.462;2022-07-23T10:07:44;21.02;;;18.90;;
49041;SDS011;34859;51.608;11.462;2022-07-23T10:10:30;22.00;;;20.05;;
49041;SDS011;34859;51.608;11.462;2022-07-23T10:13:17;23.30;;;21.02;;
49041;SDS011;34859;51.608;11.462;2022-07-23T10:16:18;17.02;;;15.32;;
49041;SDS011;34859;51.608;11.462;2022-07-23T10:19:04;19.80;;;17.90;;
49041;SDS011;34859;51.608;11.462;2022-07-23T10:21:52;17.85;;;16.25;;
49041;SDS011;34859;51.608;11.462;2022-07-23T10:28:05;16.73;;;15.15;;
49041;SDS011;34859;51.608;11.462;2022-07-23T10:34:02;15.23;;;13.93;;
49041;SDS011;34859;51.608;11.462;2022-07-23T10:37:04;14.70;;;13.38;;
49041;SDS011;34859;51.608;11.462;2022-07-23T10:40:18;14.70;;;13.40;;
49041;SDS011;34859;51.608;11.462;2022-07-23T10:43:13;14.93;;;13.45;;
49041;SDS011;34859;51.608;11.462;2022-07-23T10:49:43;15.55;;;13.40;;
49041;SDS011;34859;51.608;11.462;2022-07-23T10:52:29;15.00;;;13.45;;
49041;SDS011;34859;51.608;11.462;2022-07-23T10:58:17;12.32;;;11.52;;
49041;SDS011;34859;51.608;11.462;2022-07-23T11:01:29;11.75;;;10.95;;
49041;SDS011;34859;51.608;11.462;2022-07-23T11:04:16;12.15;;;11.02;;
49041;SDS011;34859;51.608;11.462;2022-07-23T11:09:48;10.90;;;10.05;;
49041;SDS011;34859;51.608;11.462;2022-07-23T11:12:34;10.45;;;9.65;;
49041;SDS011;34859;51.608;11.462;2022-07-23T11:15:20;11.07;;;10.05;;
49041;SDS011;34859;51.608;11.462;2022-07-23T11:18:05;9.85;;;9.05;;
49041;SDS011;34859;51.608;11.462;2022-07-23T11:20:51;9.32;;;8.70;;
49041;SDS011;34859;51.608;11.462;2022-07-23T11:26:49;9.32;;;8.50;;
49041;SDS011;34859;51.608;11.462;2022-07-23T11:32:24;9.60;;;8.75;;
49041;SDS011;34859;51.608;11.462;2022-07-23T11:41:03;9.73;;;8.85;;
49041;SDS011;34859;51.608;11.462;2022-07-23T11:43:49;10.35;;;9.40;;
49041;SDS011;34859;51.608;11.462;2022-07-23T11:46:34;9.63;;;8.95;;
49041;SDS011;34859;51.608;11.462;2022-07-23T11:49:20;8.88;;;8.18;;
49041;SDS011;34859;51.608;11.462;2022-07-23T11:52:06;9.45;;;8.75;;
49041;SDS011;34859;51.608;11.462;2022-07-23T11:54:59;8.85;;;8.18;;
49041;SDS011;34859;51.608;11.462;2022-07-23T11:57:46;9.07;;;8.35;;
49041;SDS011;34859;51.608;11.462;2022-07-23T12:00:32;10.00;;;9.00;;
49041;SDS011;34859;51.608;11.462;2022-07-23T12:03:18;9.57;;;8.70;;
49041;SDS011;34859;51.608;11.462;2022-07-23T12:06:03;9.63;;;8.93;;
49041;SDS011;34859;51.608;11.462;2022-07-23T12:08:49;10.43;;;9.52;;
49041;SDS011;34859;51.608;11.462;2022-07-23T12:11:35;9.60;;;8.75;;
49041;SDS011;34859;51.608;11.462;2022-07-23T12:14:21;9.90;;;9.20;;
49041;SDS011;34859;51.608;11.462;2022-07-23T12:17:09;8.63;;;7.95;;
49041;SDS011;34859;51.608;11.462;2022-07-23T12:19:56;8.90;;;8.40;;
49041;SDS011;34859;51.608;11.462;2022-07-23T12:22:46;8.93;;;8.25;;
49041;SDS011;34859;51.608;11.462;2022-07-23T12:25:38;9.18;;;8.57;;
49041;SDS011;34859;51.608;11.462;2022-07-23T12:28:30;7.50;;;6.97;;
49041;SDS011;34859;51.608;11.462;2022-07-23T12:31:17;7.55;;;7.15;;
49041;SDS011;34859;51.608;11.462;2022-07-23T12:34:14;9.95;;;9.35;;
49041;SDS011;34859;51.608;11.462;2022-07-23T12:37:00;11.25;;;10.30;;
49041;SDS011;34859;51.608;11.462;2022-07-23T12:39:46;9.70;;;8.90;;
49041;SDS011;34859;51.608;11.462;2022-07-23T12:42:40;9.55;;;8.93;;
49041;SDS011;34859;51.608;11.462;2022-07-23T12:45:28;9.07;;;8.25;;
49041;SDS011;34859;51.608;11.462;2022-07-23T12:51:23;10.75;;;9.85;;
49041;SDS011;34859;51.608;11.462;2022-07-23T12:54:10;8.73;;;8.10;;
49041;SDS011;34859;51.608;11.462;2022-07-23T12:56:56;10.48;;;9.18;;
49041;SDS011;34859;51.608;11.462;2022-07-23T12:59:42;8.73;;;7.88;;
49041;SDS011;34859;51.608;11.462;2022-07-23T13:02:27;9.35;;;8.52;;
49041;SDS011;34859;51.608;11.462;2022-07-23T13:05:29;8.90;;;8.23;;
49041;SDS011;34859;51.608;11.462;2022-07-23T13:08:14;10.50;;;9.15;;
49041;SDS011;34859;51.608;11.462;2022-07-23T13:11:00;7.82;;;7.13;;
49041;SDS011;34859;51.608;11.462;2022-07-23T13:13:47;8.75;;;7.93;;
49041;SDS011;34859;51.608;11.462;2022-07-23T13:16:32;8.93;;;8.25;;
49041;SDS011;34859;51.608;11.462;2022-07-23T13:19:18;7.38;;;6.78;;
49041;SDS011;34859;51.608;11.462;2022-07-23T13:22:07;6.82;;;6.32;;
49041;SDS011;34859;51.608;11.462;2022-07-23T13:24:52;6.10;;;5.70;;
49041;SDS011;34859;51.608;11.462;2022-07-23T13:27:38;6.30;;;5.68;;
49041;SDS011;34859;51.608;11.462;2022-07-23T13:30:24;6.47;;;5.80;;
49041;SDS011;34859;51.608;11.462;2022-07-23T13:33:09;6.93;;;6.22;;
49041;SDS011;34859;51.608;11.462;2022-07-23T13:35:55;8.50;;;5.75;;
49041;SDS011;34859;51.608;11.462;2022-07-23T13:38:41;9.95;;;6.13;;
49041;SDS011;34859;51.608;11.462;2022-07-23T13:41:26;5.85;;;5.35;;
49041;SDS011;34859;51.608;11.462;2022-07-23T13:44:12;4.88;;;4.47;;
49041;SDS011;34859;51.608;11.462;2022-07-23T13:46:58;5.60;;;4.85;;
49041;SDS011;34859;51.608;11.462;2022-07-23T13:49:44;5.45;;;4.82;;
49041;SDS011;34859;51.608;11.462;2022-07-23T13:52:29;5.85;;;5.30;;
49041;SDS011;34859;51.608;11.462;2022-07-23T13:55:15;5.38;;;4.85;;
49041;SDS011;34859;51.608;11.462;2022-07-23T13:58:01;5.15;;;4.75;;
49041;SDS011;34859;51.608;11.462;2022-07-23T14:00:49;4.30;;;4.00;;
49041;SDS011;34859;51.608;11.462;2022-07-23T14:03:36;4.53;;;4.25;;
49041;SDS011;34859;51.608;11.462;2022-07-23T14:06:22;4.72;;;4.28;;
49041;SDS011;34859;51.608;11.462;2022-07-23T14:09:08;4.85;;;3.50;;
49041;SDS011;34859;51.608;11.462;2022-07-23T14:11:53;4.68;;;3.75;;
49041;SDS011;34859;51.608;11.462;2022-07-23T14:14:39;5.18;;;3.63;;
49041;SDS011;34859;51.608;11.462;2022-07-23T14:17:25;3.72;;;3.38;;
49041;SDS011;34859;51.608;11.462;2022-07-23T14:20:11;5.53;;;3.38;;
49041;SDS011;34859;51.608;11.462;2022-07-23T14:22:58;3.10;;;2.80;;
49041;SDS011;34859;51.608;11.462;2022-07-23T14:25:45;2.88;;;2.67;;
49041;SDS011;34859;51.608;11.462;2022-07-23T14:28:34;3.80;;;3.17;;
49041;SDS011;34859;51.608;11.462;2022-07-23T14:31:20;3.35;;;3.15;;
49041;SDS011;34859;51.608;11.462;2022-07-23T14:34:05;3.33;;;3.00;;
49041;SDS011;34859;51.608;11.462;2022-07-23T14:36:51;5.93;;;3.35;;
49041;SDS011;34859;51.608;11.462;2022-07-23T14:39:38;3.05;;;2.53;;
49041;SDS011;34859;51.608;11.462;2022-07-23T14:42:24;5.20;;;3.10;;
49041;SDS011;34859;51.608;11.462;2022-07-23T14:45:10;3.10;;;2.72;;
49041;SDS011;34859;51.608;11.462;2022-07-23T14:47:56;3.72;;;2.42;;
49041;SDS011;34859;51.608;11.462;2022-07-23T14:50:42;2.40;;;2.20;;
49041;SDS011;34859;51.608;11.462;2022-07-23T14:53:27;2.42;;;2.22;;
49041;SDS011;34859;51.608;11.462;2022-07-23T14:56:13;3.28;;;2.00;;
49041;SDS011;34859;51.608;11.462;2022-07-23T14:58:59;3.30;;;1.88;;
49041;SDS011;34859;51.608;11.462;2022-07-23T15:01:45;3.33;;;1.80;;
49041;SDS011;34859;51.608;11.462;2022-07-23T15:04:31;1.75;;;1.65;;
49041;SDS011;34859;51.608;11.462;2022-07-23T15:07:17;2.38;;;1.70;;
49041;SDS011;34859;51.608;11.462;2022-07-23T15:10:02;3.60;;;1.92;;
49041;SDS011;34859;51.608;11.462;2022-07-23T15:12:49;2.92;;;1.40;;
49041;SDS011;34859;51.608;11.462;2022-07-23T15:15:35;2.97;;;1.70;;
49041;SDS011;34859;51.608;11.462;2022-07-23T15:18:20;2.97;;;1.80;;
49041;SDS011;34859;51.608;11.462;2022-07-23T15:21:06;2.58;;;1.60;;
49041;SDS011;34859;51.608;11.462;2022-07-23T15:23:52;3.17;;;1.70;;
49041;SDS011;34859;51.608;11.462;2022-07-23T15:26:37;3.42;;;1.90;;
49041;SDS011;34859;51.608;11.462;2022-07-23T15:29:23;2.42;;;1.45;;
49041;SDS011;34859;51.608;11.462;2022-07-23T15:32:09;1.65;;;1.20;;
49041;SDS011;34859;51.608;11.462;2022-07-23T15:34:56;1.58;;;1.48;;
49041;SDS011;34859;51.608;11.462;2022-07-23T15:37:42;4.40;;;1.60;;
49041;SDS011;34859;51.608;11.462;2022-07-23T15:40:27;10.52;;;1.52;;
49041;SDS011;34859;51.608;11.462;2022-07-23T15:43:13;1.95;;;1.50;;
49041;SDS011;34859;51.608;11.462;2022-07-23T15:45:59;4.57;;;1.42;;
49041;SDS011;34859;51.608;11.462;2022-07-23T15:48:45;1.38;;;1.20;;
49041;SDS011;34859;51.608;11.462;2022-07-23T15:51:31;2.15;;;1.10;;
49041;SDS011;34859;51.608;11.462;2022-07-23T15:54:17;1.23;;;1.05;;
49041;SDS011;34859;51.608;11.462;2022-07-23T15:57:02;1.67;;;1.00;;
49041;SDS011;34859;51.608;11.462;2022-07-23T15:59:48;1.15;;;1.02;;
49041;SDS011;34859;51.608;11.462;2022-07-23T16:02:34;1.38;;;1.20;;
49041;SDS011;34859;51.608;11.462;2022-07-23T16:05:20;2.05;;;1.52;;
49041;SDS011;34859;51.608;11.462;2022-07-23T16:08:18;1.15;;;1.05;;
49041;SDS011;34859;51.608;11.462;2022-07-23T16:11:04;1.77;;;1.52;;
49041;SDS011;34859;51.608;11.462;2022-07-23T16:13:49;1.17;;;1.00;;
49041;SDS011;34859;51.608;11.462;2022-07-23T16:16:35;1.67;;;1.50;;
49041;SDS011;34859;51.608;11.462;2022-07-23T16:19:21;2.58;;;0.82;;
49041;SDS011;34859;51.608;11.462;2022-07-23T16:22:06;0.95;;;0.90;;
49041;SDS011;34859;51.608;11.462;2022-07-23T16:24:52;1.33;;;1.20;;
49041;SDS011;34859;51.608;11.462;2022-07-23T16:27:38;1.52;;;1.00;;
49041;SDS011;34859;51.608;11.462;2022-07-23T16:30:25;3.97;;;1.48;;
49041;SDS011;34859;51.608;11.462;2022-07-23T16:33:11;1.42;;;0.80;;
49041;SDS011;34859;51.608;11.462;2022-07-23T16:35:57;3.85;;;0.95;;
49041;SDS011;34859;51.608;11.462;2022-07-23T16:38:42;1.75;;;0.90;;
49041;SDS011;34859;51.608;11.462;2022-07-23T16:41:28;1.10;;;0.90;;
49041;SDS011;34859;51.608;11.462;2022-07-23T16:44:14;2.35;;;1.20;;
49041;SDS011;34859;51.608;11.462;2022-07-23T16:47:00;0.75;;;0.75;;
49041;SDS011;34859;51.608;11.462;2022-07-23T16:49:46;2.75;;;0.55;;